Record high temperature 42.2°C Record low temperature -14.6°C Record high gust 68.5 km/h Record high average 47.2 km/h Record daily rain 55.3 mm Record low windchill -17.5°C Record high barometer 1046.0 hPa Record low barometer 969.0 hPa
Daily high pressure 1021.0 hPa Daily low pressure 1020.0 hPa Daily low windchill -0.2°C Daily high heat index 1.3°C Daily high gust speed 6.5 kmh SSE Daily high average speed 4.6 kmh S

This page is updated from recent data collected by a WMR200 weather station Use the Reload or Refresh facility on your browser to retrieve the latest data.

Status report of weather station: Bienvenue sur la Station Météo de Godarville



Weather report/warning/Metars

Alexandroupoli Airport , Greece (LGAL) 40-51N 025-55E 3M
Jan 24, 2020 - 02:20 PM EST / 2020.01.24 1920 UTC
Wind: Calm:0
Visibility: greater than 7 mile(s):0
Sky conditions: partly cloudy
Temperature: 46 F (8 C)
Dew Point: 37 F (3 C)
Relative Humidity: 70%
Pressure (altimeter): 30.42 in. Hg (1030 hPa)
ob: LGAL 241920Z 00000KT 9999 FEW020 SCT025 08/03 Q1030
cycle: 19

Charleroi / Gosselies, Belgium (EBCI) 50-28N 004-27E 192M
Jan 24, 2020 - 08:20 PM EST / 2020.01.25 0120 UTC
Wind: Variable at 2 MPH (2 KT):0
Visibility: less than 1 mile:0
Sky conditions: mostly cloudy
Weather: fog
Temperature: 32 F (0 C)
Dew Point: 30 F (-1 C)
Relative Humidity: 92%
Pressure (altimeter): 30.18 in. Hg (1022 hPa)
ob: EBCI 250120Z VRB02KT 0900 R24/1900N FG BKN002 BKN003 00/M01 Q1022 NOSIG
cycle: 1

Bruxelles National, Belgium (EBBR) 50-54N 004-32E 58M
Jan 24, 2020 - 08:20 PM EST / 2020.01.25 0120 UTC
Wind: Variable at 2 MPH (2 KT):0
Visibility: 3 mile(s):0
Sky conditions: mostly cloudy
Temperature: 32 F (0 C)
Dew Point: 28 F (-2 C)
Relative Humidity: 86%
Pressure (altimeter): 30.18 in. Hg (1022 hPa)
ob: EBBR 250120Z VRB02KT 6000 SCT008 BKN010 M00/M02 Q1022 NOSIG
cycle: 1

Koksijde, Belgium (EBFN) 51-05N 002-39E 9M
Jan 24, 2020 - 08:25 PM EST / 2020.01.25 0125 UTC
Wind: from the S (180 degrees) at 7 MPH (6 KT):0
Visibility: less than 1 mile:0
Sky conditions: overcast
Weather: mist
Temperature: 33 F (1 C)
Windchill: 26 F (-3 C):1
Dew Point: 33 F (1 C)
Relative Humidity: 100%
Pressure (altimeter): 30.18 in. Hg (1022 hPa)
ob: EBFN 250125Z AUTO 18006KT 1400 BR BKN004/// OVC019/// 01/01 Q1022 AMB
cycle: 1

Poznan, Poland (EPPO) 52-25N 016-50E 92M
Jan 24, 2020 - 08:30 PM EST / 2020.01.25 0130 UTC
Wind: from the W (260 degrees) at 8 MPH (7 KT):0
Visibility: 1 mile(s):0
Sky conditions: overcast
Weather: mist
Temperature: 32 F (0 C)
Windchill: 24 F (-4 C):1
Dew Point: 32 F (0 C)
Relative Humidity: 100%
Pressure (altimeter): 30.09 in. Hg (1019 hPa)
ob: EPPO 250130Z 26007KT 2600 BR OVC003 00/M00 Q1019 
cycle: 1



Coucher du Soleil:
17:20:53

Lever de Lune:
08:31:20 24/01/20

Coucher de Lune:
16:45:32 24/01/20

Premier Quartier 2 février 2020
Pleine Lune 9 février 2020
Dernier Quartier 15 février 2020
Nouvelle Lune 23 février 2020
Âge de lune : 0 jours,1 heures,20 minutes,0%
Les heures du jour possible étaient aujourd’hui 08:51



The data is logged at two minute intervals, but there is data recorded every minute.

Use the RELOAD facility on your browser to retrieve the latest data.

Click here for a daily update of the averages/extremes to date for the month
Created by "Weather Display" software version 10.37P at this start time/date 12:40:29 22/01/2020